Time;durP1;ratioP1;P1;durP2;ratioP2;P2;SDS_P1;SDS_P2;PMS_P1;PMS_P2;Temp;Humidity;BMP_temperature;BMP_pressure;BME280_temperature;BME280_humidity;BME280_pressure;Samples;Min_cycle;Max_cycle;Signal;HPM_P1;HPM_P2
2023/05/26 00:00:09;;;;;;;14.20;4.80;;;;;;;12.70;84.84;101298.48;217938;1288;142442;-87
2023/05/26 00:05:09;;;;;;;11.30;4.40;;;;;;;12.66;84.67;101301.75;218435;1288;139145;-87
2023/05/26 00:10:10;;;;;;;14.90;4.40;;;;;;;12.63;85.06;101300.98;217932;1288;141085;-87
2023/05/26 00:15:11;;;;;;;13.50;4.00;;;;;;;12.54;84.74;101301.71;218471;1288;139371;-87
2023/05/26 00:20:11;;;;;;;13.00;5.50;;;;;;;12.47;85.00;101303.16;217939;1289;141540;-86
2023/05/26 00:25:12;;;;;;;15.70;5.00;;;;;;;12.40;85.26;101312.65;218449;1288;139182;-86
2023/05/26 00:30:12;;;;;;;17.90;5.40;;;;;;;12.32;85.53;101311.02;218018;1288;143018;-86
2023/05/26 00:35:13;;;;;;;15.80;5.60;;;;;;;12.22;85.50;101307.73;218236;1288;138961;-87
2023/05/26 00:40:13;;;;;;;15.50;4.70;;;;;;;12.11;85.64;101308.58;217786;1289;143146;-87
2023/05/26 00:45:14;;;;;;;14.60;4.80;;;;;;;11.99;85.62;101308.50;218461;1290;139389;-87
2023/05/26 00:50:16;;;;;;;14.70;4.50;;;;;;;11.89;86.05;101311.60;217739;1288;140770;-86
2023/05/26 00:55:18;;;;;;;16.40;5.20;;;;;;;11.78;86.46;101314.46;218289;1293;139003;-86
2023/05/26 01:00:18;;;;;;;11.50;4.50;;;;;;;11.68;86.49;101308.64;217841;1288;141388;-86
2023/05/26 01:05:19;;;;;;;17.10;5.50;;;;;;;11.58;86.93;101309.14;218057;1293;138889;-86
2023/05/26 01:10:20;;;;;;;14.60;5.50;;;;;;;11.47;87.32;101305.51;217331;1290;142144;-86
2023/05/26 01:15:36;;;;;;;11.60;5.00;;;;;;;11.34;87.37;101305.30;218005;1291;139070;-86
2023/05/26 01:20:45;;;;;;;14.60;5.30;;;;;;;11.24;87.81;101307.98;217521;1291;142695;-86
2023/05/26 01:26:17;;;;;;;16.60;4.90;;;;;;;11.13;87.81;101305.78;217970;1293;139030;-86
2023/05/26 01:31:17;;;;;;;14.30;4.70;;;;;;;11.00;87.64;101298.61;217467;1291;142073;-86
2023/05/26 01:36:17;;;;;;;12.30;4.60;;;;;;;10.89;87.65;101298.36;218189;1291;96187;-85
2023/05/26 01:41:32;;;;;;;12.70;4.60;;;;;;;10.78;87.70;101298.74;217543;1291;140551;-86
2023/05/26 01:46:43;;;;;;;14.70;4.80;;;;;;;10.65;87.82;101296.13;218012;1292;139432;-86
2023/05/26 01:51:50;;;;;;;11.30;4.40;;;;;;;10.50;88.06;101295.68;217463;1291;141303;-86
2023/05/26 01:56:52;;;;;;;16.90;4.30;;;;;;;10.34;88.53;101296.20;218014;1291;139377;-86
2023/05/26 02:01:52;;;;;;;11.30;4.30;;;;;;;10.21;88.62;101295.86;217519;1290;141559;-86
2023/05/26 02:06:54;;;;;;;13.10;5.60;;;;;;;10.10;88.64;101296.20;218155;1291;96087;-85
2023/05/26 02:11:55;;;;;;;12.00;4.30;;;;;;;10.02;88.57;101297.53;217561;1291;140724;-85
2023/05/26 02:16:55;;;;;;;13.20;4.90;;;;;;;9.95;88.64;101303.22;218024;1290;138672;-85
2023/05/26 02:21:56;;;;;;;14.90;5.00;;;;;;;9.86;89.00;101303.36;217440;1291;142071;-85
2023/05/26 02:26:56;;;;;;;20.00;7.40;;;;;;;9.74;89.06;101305.46;218055;1291;138721;-85
2023/05/26 02:31:57;;;;;;;16.00;6.10;;;;;;;9.63;89.41;101311.05;217569;1291;140781;-84
2023/05/26 02:36:57;;;;;;;17.10;5.30;;;;;;;9.53;89.68;101307.54;218188;1291;95779;-84
2023/05/26 02:41:57;;;;;;;15.40;5.20;;;;;;;9.41;90.66;101302.94;217311;1291;296039;-85
2023/05/26 02:46:58;;;;;;;18.10;5.50;;;;;;;9.29;91.79;101295.29;218034;1291;140072;-85
2023/05/26 02:51:58;;;;;;;15.50;5.70;;;;;;;9.21;92.41;101291.96;217566;1290;142419;-84
2023/05/26 02:56:59;;;;;;;15.70;5.20;;;;;;;9.14;92.98;101294.34;218104;1290;138863;-85
2023/05/26 03:01:59;;;;;;;19.10;6.10;;;;;;;9.07;93.66;101299.94;217575;1291;142347;-85
2023/05/26 03:07:01;;;;;;;17.10;6.30;;;;;;;9.01;94.36;101299.67;218070;1289;101731;-85
2023/05/26 03:12:01;;;;;;;17.90;6.00;;;;;;;8.97;94.91;101297.20;217587;1291;143165;-85
2023/05/26 03:17:02;;;;;;;17.30;6.00;;;;;;;8.95;94.59;101296.73;217978;1291;138759;-85
2023/05/26 03:22:02;;;;;;;20.00;6.20;;;;;;;8.95;94.45;101298.92;217570;1291;140405;-83
2023/05/26 03:27:03;;;;;;;21.60;7.30;;;;;;;8.95;94.56;101302.08;218111;1291;138821;-84
2023/05/26 03:32:04;;;;;;;20.50;6.40;;;;;;;8.95;95.03;101302.86;217625;1291;142206;-85
2023/05/26 03:37:06;;;;;;;13.80;5.20;;;;;;;8.95;95.68;101305.21;218226;1291;96375;-85
2023/05/26 03:42:08;;;;;;;19.70;6.60;;;;;;;8.96;95.30;101306.43;217526;1292;141151;-85
2023/05/26 03:47:09;;;;;;;21.90;6.20;;;;;;;8.99;95.46;101300.95;218132;1291;138625;-86
2023/05/26 03:52:09;;;;;;;18.60;5.70;;;;;;;9.03;95.35;101303.48;217540;1293;140405;-86
2023/05/26 03:57:10;;;;;;;15.70;5.70;;;;;;;9.07;95.44;101300.25;218009;1292;138918;-86
2023/05/26 04:02:10;;;;;;;20.60;5.20;;;;;;;9.11;94.89;101308.21;217558;1292;140994;-86
2023/05/26 04:07:11;;;;;;;16.20;4.80;;;;;;;9.15;94.99;101307.92;217949;1293;139220;-85
2023/05/26 04:12:12;;;;;;;13.40;5.30;;;;;;;9.20;95.12;101305.81;217683;1290;142168;-86
2023/05/26 04:17:12;;;;;;;19.20;6.90;;;;;;;9.25;95.30;101310.13;218101;1292;138681;-86
2023/05/26 04:22:13;;;;;;;17.00;5.50;;;;;;;9.31;95.51;101314.73;217565;1292;142333;-86
2023/05/26 04:27:14;;;;;;;24.00;5.30;;;;;;;9.39;95.14;101319.66;218094;1291;138677;-86
2023/05/26 04:32:15;;;;;;;19.50;5.70;;;;;;;9.49;95.35;101323.49;217605;1290;140840;-86
2023/05/26 04:37:16;;;;;;;13.50;4.90;;;;;;;9.58;95.36;101322.14;218052;1291;138890;-86
2023/05/26 04:42:19;;;;;;;21.60;5.40;;;;;;;9.67;95.38;101320.04;217540;1291;141059;-85
2023/05/26 04:47:19;;;;;;;17.60;5.20;;;;;;;9.78;95.18;101327.02;218122;1292;138542;-86
2023/05/26 04:52:20;;;;;;;18.30;6.60;;;;;;;9.89;95.16;101329.53;217561;1292;140682;-86
2023/05/26 04:57:21;;;;;;;17.70;5.00;;;;;;;10.01;95.38;101331.52;217961;1292;139086;-89
2023/05/26 05:02:21;;;;;;;24.20;5.10;;;;;;;10.15;95.02;101332.42;217394;1291;140953;-87
2023/05/26 05:07:21;;;;;;;18.60;4.60;;;;;;;10.29;94.64;101333.12;218091;1290;138832;-85
2023/05/26 05:12:22;;;;;;;24.30;5.60;;;;;;;10.45;94.65;101330.61;217668;1292;141788;-87
2023/05/26 05:17:22;;;;;;;16.80;5.40;;;;;;;10.64;94.64;101329.77;217986;1290;139589;-91
2023/05/26 05:22:23;;;;;;;16.60;5.10;;;;;;;10.92;94.01;101336.98;217503;1290;141236;-87
2023/05/26 05:27:23;;;;;;;21.00;5.50;;;;;;;11.31;94.43;101337.20;218102;1290;140490;-88
2023/05/26 05:32:24;;;;;;;15.70;5.00;;;;;;;11.86;94.62;101338.27;217582;1291;142769;-88
2023/05/26 05:37:25;;;;;;;14.40;4.30;;;;;;;12.54;92.48;101340.74;217955;1290;141356;-88
2023/05/26 05:42:26;;;;;;;16.30;4.60;;;;;;;13.21;90.21;101340.69;217593;1291;142468;-91
2023/05/26 05:47:26;;;;;;;19.30;5.10;;;;;;;13.97;88.86;101347.81;218017;1290;139099;-92
2023/05/26 05:52:27;;;;;;;17.70;4.80;;;;;;;14.80;85.79;101353.29;217532;1290;141271;-92
2023/05/26 05:57:27;;;;;;;15.10;4.90;;;;;;;15.60;83.88;101355.21;218081;1291;139017;-91
2023/05/26 06:02:28;;;;;;;21.90;5.10;;;;;;;16.48;81.26;101356.59;217452;1290;140791;-91
2023/05/26 06:07:28;;;;;;;18.60;5.20;;;;;;;17.23;77.70;101351.17;218117;1290;140466;-93
2023/05/26 06:12:29;;;;;;;13.40;4.30;;;;;;;17.76;74.53;101352.24;217627;1290;143517;-89
2023/05/26 06:17:29;;;;;;;16.60;4.90;;;;;;;18.30;71.89;101352.95;218121;1290;139102;-91
2023/05/26 06:22:30;;;;;;;19.40;4.40;;;;;;;18.85;70.24;101350.30;217577;1290;141237;-90
2023/05/26 06:27:30;;;;;;;16.30;4.00;;;;;;;19.41;67.94;101349.95;217937;1291;140217;-92
2023/05/26 06:32:31;;;;;;;17.40;4.50;;;;;;;19.97;64.74;101354.20;217707;1290;140336;-93
2023/05/26 06:37:31;;;;;;;15.90;4.50;;;;;;;20.30;62.47;101355.47;218133;1290;139382;-93
2023/05/26 06:42:32;;;;;;;12.60;3.80;;;;;;;20.52;61.21;101351.30;217603;1290;142487;-91
2023/05/26 06:47:32;;;;;;;15.40;4.80;;;;;;;20.79;59.90;101349.04;218073;1290;138550;-90
2023/05/26 06:52:33;;;;;;;14.60;3.80;;;;;;;21.03;58.46;101360.36;217562;1290;141512;-93
2023/05/26 06:57:36;;;;;;;14.80;3.80;;;;;;;21.33;57.79;101360.71;218133;1290;139112;-91
2023/05/26 07:02:38;;;;;;;14.00;3.60;;;;;;;21.54;55.95;101353.02;217544;1290;141349;-92
2023/05/26 07:07:39;;;;;;;16.30;4.00;;;;;;;21.74;54.62;101352.50;218139;1290;139947;-90
2023/05/26 07:12:40;;;;;;;15.50;4.10;;;;;;;21.67;53.28;101353.11;217684;1290;142197;-87
2023/05/26 07:17:40;;;;;;;12.50;3.50;;;;;;;21.76;52.32;101356.63;218354;1290;138415;-93
2023/05/26 07:22:41;;;;;;;13.30;3.60;;;;;;;21.91;51.73;101358.23;218110;1289;140279;-94
2023/05/26 07:27:41;;;;;;;11.70;3.10;;;;;;;21.97;51.93;101358.20;218529;1290;137464;-94
2023/05/26 07:32:42;;;;;;;16.30;4.00;;;;;;;22.29;51.03;101359.81;218114;1290;140351;-92
2023/05/26 07:37:42;;;;;;;13.40;3.80;;;;;;;22.41;50.50;101366.05;218578;1290;137510;-96
2023/05/26 07:42:43;;;;;;;14.70;4.10;;;;;;;22.48;49.67;101369.92;218604;1290;141080;-95
2023/05/26 07:47:43;;;;;;;14.20;3.70;;;;;;;22.39;50.00;101375.21;218942;1289;137012;-95
2023/05/26 07:52:44;;;;;;;15.30;4.50;;;;;;;22.34;49.78;101380.30;218093;1290;139967;-96
2023/05/26 07:57:44;;;;;;;14.80;3.90;;;;;;;22.34;50.23;101378.71;218572;1290;138318;-95
2023/05/26 08:02:45;;;;;;;13.20;3.00;;;;;;;22.41;49.19;101387.20;217684;1290;140556;-87
2023/05/26 08:07:45;;;;;;;11.80;3.60;;;;;;;22.67;49.56;101392.41;218440;1290;138309;-95
2023/05/26 08:12:46;;;;;;;11.30;3.70;;;;;;;23.07;48.66;101390.97;218078;1290;141845;-96
2023/05/26 08:17:47;;;;;;;11.50;3.20;;;;;;;23.65;48.91;101393.86;218396;1290;137078;-93
2023/05/26 08:22:48;;;;;;;20.60;4.10;;;;;;;24.28;47.61;101392.81;217682;1290;141750;-93
2023/05/26 08:27:51;;;;;;;11.30;3.60;;;;;;;24.97;46.80;101392.66;218468;1290;138358;-94
2023/05/26 08:32:52;;;;;;;13.10;4.30;;;;;;;25.66;46.62;101388.45;218128;1290;139734;-95
2023/05/26 08:37:52;;;;;;;14.90;4.20;;;;;;;26.11;44.36;101394.49;218439;1290;138353;-93
2023/05/26 08:42:56;;;;;;;12.70;4.40;;;;;;;26.65;44.21;101389.74;218003;1290;141669;-93
2023/05/26 08:48:00;;;;;;;13.30;4.30;;;;;;;27.30;42.85;101390.28;218311;1290;139096;-95
2023/05/26 08:53:04;;;;;;;12.90;4.40;;;;;;;27.87;41.59;101388.02;217999;1290;140545;-90
2023/05/26 08:58:05;;;;;;;17.40;4.40;;;;;;;28.37;41.06;101384.76;218267;1289;138879;-95
2023/05/26 09:03:06;;;;;;;12.20;3.70;;;;;;;28.75;39.80;101373.59;217786;1290;140502;-92
2023/05/26 09:08:06;;;;;;;14.90;4.70;;;;;;;29.14;39.53;101373.05;218223;1290;138425;-95
2023/05/26 09:13:09;;;;;;;14.30;4.00;;;;;;;29.66;38.29;101374.92;217998;1290;140243;-95
2023/05/26 09:18:12;;;;;;;14.40;4.00;;;;;;;30.08;37.83;101376.79;218586;1290;106609;-92
2023/05/26 09:23:14;;;;;;;17.30;4.30;;;;;;;30.33;37.20;101384.13;217777;1290;140039;-94
2023/05/26 09:28:15;;;;;;;12.20;3.80;;;;;;;30.85;36.28;101383.05;218109;1291;139524;-96
2023/05/26 09:33:17;;;;;;;11.40;3.80;;;;;;;31.21;35.36;101375.69;217642;1291;140940;-95
2023/05/26 09:38:19;;;;;;;13.60;3.90;;;;;;;31.35;34.05;101371.48;218358;1291;138914;-92
2023/05/26 09:43:22;;;;;;;10.90;3.80;;;;;;;31.51;33.98;101368.59;217524;1292;141669;-89
2023/05/26 09:48:22;;;;;;;16.20;4.10;;;;;;;31.86;33.69;101371.19;218445;1291;96694;-95
2023/05/26 09:53:23;;;;;;;13.20;3.60;;;;;;;32.11;32.67;101363.02;217768;1290;139934;-95
2023/05/26 09:58:25;;;;;;;13.70;3.30;;;;;;;31.90;32.04;101366.11;218125;1292;138749;-95
2023/05/26 10:03:27;;;;;;;12.80;3.80;;;;;;;32.15;31.91;101364.36;217786;1291;141377;-95
2023/05/26 10:08:30;;;;;;;12.60;4.80;;;;;;;32.56;32.25;101369.66;218257;1291;138341;-96
2023/05/26 10:13:31;;;;;;;14.70;3.70;;;;;;;32.79;31.07;101369.07;217717;1291;140234;-95
2023/05/26 10:18:32;;;;;;;14.70;3.70;;;;;;;32.92;31.01;101367.88;218822;1291;95754;-95
2023/05/26 10:23:39;;;;;;;12.70;3.90;;;;;;;33.14;30.36;101358.56;217979;1291;141164;-91
2023/05/26 10:29:03;;;;;;;12.20;4.50;;;;;;;33.46;30.43;101358.90;218623;1286;139147;31
2023/05/26 10:34:15;;;;;;;10.80;4.00;;;;;;;33.51;29.66;101358.98;218668;1290;138964;-95
2023/05/26 10:39:18;;;;;;;14.90;5.00;;;;;;;33.41;29.44;101352.19;218094;1289;142173;-89
2023/05/26 10:44:41;;;;;;;11.50;3.40;;;;;;;33.52;29.76;101353.70;218764;1289;139635;-93
2023/05/26 10:49:57;;;;;;;10.60;3.50;;;;;;;33.41;28.96;101348.65;218745;1287;99997;-92
2023/05/26 10:55:00;;;;;;;13.20;3.90;;;;;;;33.16;29.87;101350.89;218573;1290;100253;-94
2023/05/26 11:00:37;;;;;;;13.40;3.80;;;;;;;33.05;28.82;101346.02;217968;1290;138607;-96
2023/05/26 11:05:54;;;;;;;12.10;4.00;;;;;;;33.07;28.77;101344.06;218503;1287;138477;-96
2023/05/26 11:58:28;;;;;;;8.80;3.00;;;;;;;31.68;29.12;101322.22;219126;1287;138229;-91
2023/05/26 12:03:50;;;;;;;12.00;3.40;;;;;;;31.75;29.59;101323.60;218458;1288;139903;-92
2023/05/26 12:09:02;;;;;;;15.50;4.20;;;;;;;32.03;29.64;101315.70;218825;1288;140677;-91
2023/05/26 12:14:10;;;;;;;13.40;3.60;;;;;;;32.10;29.28;101314.53;219088;1287;138433;-89
2023/05/26 12:19:13;;;;;;;12.30;3.60;;;;;;;31.89;29.09;101316.04;218666;1287;140914;-94
2023/05/26 12:24:28;;;;;;;10.90;4.00;;;;;;;31.97;29.36;101313.79;219097;1287;138913;-92
2023/05/26 12:29:28;;;;;;;10.90;3.80;;;;;;;31.87;29.33;101313.27;218408;1287;141649;-90
2023/05/26 12:34:29;;;;;;;18.90;3.80;;;;;;;31.66;29.36;101317.96;219059;1287;138428;-95
2023/05/26 12:39:31;;;;;;;10.80;3.30;;;;;;;31.56;27.91;101303.92;218915;1288;140033;-92
2023/05/26 12:44:32;;;;;;;9.20;3.80;;;;;;;31.21;29.11;101300.31;219111;1287;138318;-93
2023/05/26 12:49:32;;;;;;;38.70;4.80;;;;;;;31.02;29.01;101305.86;218868;1287;140186;-93
2023/05/26 12:54:32;;;;;;;12.00;3.50;;;;;;;30.85;30.01;101300.04;219104;1287;138137;-88
2023/05/26 12:59:33;;;;;;;13.90;4.00;;;;;;;30.96;30.07;101295.44;218399;1287;140130;-95
2023/05/26 13:04:35;;;;;;;9.70;3.20;;;;;;;30.77;29.37;101289.80;219115;1287;138789;-88
2023/05/26 13:09:35;;;;;;;11.90;2.90;;;;;;;30.56;30.36;101291.73;218421;1287;140003;-90
2023/05/26 13:14:35;;;;;;;11.30;3.50;;;;;;;30.79;30.36;101286.98;218937;1287;138590;-91
2023/05/26 13:19:36;;;;;;;14.30;3.40;;;;;;;30.68;30.00;101282.31;218306;1287;139809;-89
2023/05/26 13:24:36;;;;;;;9.50;3.20;;;;;;;30.45;30.97;101281.27;219141;1287;96194;-95
2023/05/26 13:29:37;;;;;;;10.80;3.10;;;;;;;30.44;30.13;101285.65;218534;1287;141368;-91
2023/05/26 13:34:37;;;;;;;12.30;3.50;;;;;;;30.09;30.90;101290.13;219086;1288;138603;-92
2023/05/26 13:39:37;;;;;;;11.70;3.70;;;;;;;29.59;29.44;101287.59;218476;1287;139776;-93
2023/05/26 13:44:38;;;;;;;10.30;4.10;;;;;;;28.99;31.29;101285.83;218953;1287;138443;-91
2023/05/26 13:49:38;;;;;;;12.20;3.20;;;;;;;28.79;31.77;101285.22;218737;1287;141436;-90
2023/05/26 13:54:38;;;;;;;15.10;3.10;;;;;;;28.66;32.32;101281.67;219275;1287;95646;-88
2023/05/26 13:59:39;;;;;;;11.90;3.20;;;;;;;28.58;32.64;101281.19;218700;1287;141257;-88
2023/05/26 14:04:40;;;;;;;9.60;2.80;;;;;;;28.67;32.42;101285.67;219010;1287;138324;-91
2023/05/26 14:09:41;;;;;;;9.60;3.00;;;;;;;28.68;33.25;101287.89;218484;1287;141067;-90
2023/05/26 14:14:41;;;;;;;13.00;3.90;;;;;;;28.75;32.97;101285.43;219186;1287;138489;-91
2023/05/26 14:19:42;;;;;;;11.70;3.70;;;;;;;28.58;31.66;101285.81;218410;1287;140290;-90
2023/05/26 14:24:43;;;;;;;14.60;3.90;;;;;;;28.35;33.08;101282.88;219366;1287;95668;-89
2023/05/26 14:29:43;;;;;;;12.30;2.70;;;;;;;28.08;33.17;101285.08;218464;1287;141038;-92
2023/05/26 14:34:45;;;;;;;11.60;3.60;;;;;;;27.95;34.27;101287.98;219213;1288;139297;-92
2023/05/26 14:39:45;;;;;;;14.60;3.90;;;;;;;27.86;33.62;101290.83;218524;1287;235716;-87
2023/05/26 14:44:45;;;;;;;13.80;3.60;;;;;;;27.63;33.50;101282.84;219171;1287;138359;-89
2023/05/26 14:49:46;;;;;;;11.60;4.00;;;;;;;27.24;33.93;101281.35;218553;1287;139839;-91
2023/05/26 14:54:48;;;;;;;14.80;4.50;;;;;;;26.89;33.86;101276.21;219397;1287;95773;-91
2023/05/26 14:59:49;;;;;;;12.80;3.50;;;;;;;26.54;34.90;101278.03;218618;1287;140468;-88
2023/05/26 15:04:50;;;;;;;14.50;4.10;;;;;;;26.52;36.57;101280.46;219004;1287;138693;-87
2023/05/26 15:09:50;;;;;;;9.40;3.40;;;;;;;26.55;35.50;101281.20;218467;1288;140684;-86
2023/05/26 15:14:51;;;;;;;13.80;4.00;;;;;;;26.44;36.07;101278.04;218881;1287;138174;-90
2023/05/26 15:19:52;;;;;;;13.40;4.40;;;;;;;26.25;36.41;101279.77;218435;1287;140347;-86
2023/05/26 15:24:52;;;;;;;11.80;4.10;;;;;;;25.98;36.15;101275.35;219319;1287;95703;-86
2023/05/26 15:30:00;;;;;;;11.20;3.70;;;;;;;25.75;36.25;101282.67;218668;1287;140678;-90
2023/05/26 15:35:01;;;;;;;10.30;3.10;;;;;;;25.59;36.31;101280.77;219207;1288;138368;-86
2023/05/26 15:40:01;;;;;;;13.90;3.70;;;;;;;25.24;35.37;101288.06;218526;1287;140180;-88
2023/05/26 15:45:04;;;;;;;11.10;3.00;;;;;;;24.94;36.23;101291.29;218857;1287;138315;-87
2023/05/26 15:50:05;;;;;;;13.30;3.60;;;;;;;24.75;36.48;101294.29;218530;1287;141129;-90
2023/05/26 15:55:06;;;;;;;12.60;3.50;;;;;;;24.45;35.88;101288.49;219079;1288;112294;-88
2023/05/26 16:00:09;;;;;;;12.00;3.00;;;;;;;24.12;36.58;101295.02;218674;1287;139922;-87
2023/05/26 16:05:10;;;;;;;13.10;3.90;;;;;;;23.85;36.24;101285.94;218863;1287;138426;-90
2023/05/26 16:10:11;;;;;;;12.40;3.50;;;;;;;23.43;36.59;101287.09;218496;1287;139953;-87
2023/05/26 16:15:11;;;;;;;13.50;3.70;;;;;;;23.17;37.10;101286.55;218787;1288;138356;-86
2023/05/26 16:20:12;;;;;;;14.70;3.80;;;;;;;22.83;36.31;101292.49;218645;1288;141578;-88
2023/05/26 16:25:12;;;;;;;14.00;5.00;;;;;;;22.60;37.29;101302.86;219316;1287;95981;-90
2023/05/26 16:30:13;;;;;;;12.30;4.30;;;;;;;22.29;36.83;101300.45;218463;1287;139766;-88
2023/05/26 16:35:14;;;;;;;13.20;4.00;;;;;;;21.97;37.52;101296.45;218827;1288;138618;-88
2023/05/26 16:40:14;;;;;;;9.50;2.80;;;;;;;21.86;38.58;101291.56;218428;1288;140453;-87
2023/05/26 16:45:15;;;;;;;11.60;3.90;;;;;;;21.68;38.67;101290.33;218990;1287;139062;-88
2023/05/26 16:50:15;;;;;;;10.30;3.20;;;;;;;21.39;38.35;101292.01;218432;1287;142029;-89
2023/05/26 16:55:15;;;;;;;13.50;4.00;;;;;;;21.17;39.02;101290.20;219067;1287;95722;-87
2023/05/26 17:00:16;;;;;;;15.40;3.60;;;;;;;21.08;40.08;101299.09;218584;1287;140234;-88
2023/05/26 17:05:17;;;;;;;12.40;3.60;;;;;;;20.92;39.96;101303.20;219193;1288;139360;-87
2023/05/26 17:10:20;;;;;;;15.20;3.90;;;;;;;20.75;40.17;101313.05;218612;1288;141155;-87
2023/05/26 17:15:21;;;;;;;11.60;3.30;;;;;;;20.59;40.21;101314.69;218884;1287;138280;-89
2023/05/26 17:20:21;;;;;;;13.20;3.90;;;;;;;20.35;41.18;101321.20;218290;1288;141636;-87
2023/05/26 17:25:22;;;;;;;15.20;3.80;;;;;;;20.22;41.16;101323.55;219466;1288;95731;-86
2023/05/26 17:30:22;;;;;;;14.10;3.50;;;;;;;20.02;41.32;101327.62;218528;1288;140314;-87
2023/05/26 17:35:24;;;;;;;13.30;3.90;;;;;;;19.82;41.84;101332.34;218995;1288;138458;-87
2023/05/26 17:40:25;;;;;;;10.90;3.70;;;;;;;19.64;42.44;101326.41;218536;1288;140651;-87
2023/05/26 17:45:27;;;;;;;13.90;3.40;;;;;;;19.42;42.60;101330.27;218906;1287;138602;-84
2023/05/26 17:50:28;;;;;;;9.90;3.10;;;;;;;19.19;42.73;101334.14;218623;1287;140503;-85
2023/05/26 17:55:28;;;;;;;10.30;4.20;;;;;;;19.01;43.29;101336.45;218957;1288;95757;-85
2023/05/26 18:00:29;;;;;;;14.80;4.00;;;;;;;18.86;43.87;101335.70;218577;1287;139837;-86
2023/05/26 18:05:30;;;;;;;11.50;3.20;;;;;;;18.72;44.36;101339.10;218908;1288;139004;-85
2023/05/26 18:10:30;;;;;;;15.50;4.60;;;;;;;18.59;45.03;101347.70;218599;1287;141079;-85
2023/05/26 18:15:31;;;;;;;15.90;5.10;;;;;;;18.45;45.33;101354.17;218928;1288;138374;-85
2023/05/26 18:20:32;;;;;;;15.40;4.30;;;;;;;18.26;45.65;101359.75;218181;1287;139674;-87
2023/05/26 18:25:34;;;;;;;14.40;3.80;;;;;;;18.07;46.29;101368.92;219029;1287;95683;-85
2023/05/26 18:30:36;;;;;;;12.90;3.90;;;;;;;17.88;46.72;101375.84;218731;1287;140144;-86
2023/05/26 18:35:36;;;;;;;14.50;4.40;;;;;;;17.66;47.38;101378.77;218937;1288;138587;-86
2023/05/26 18:40:36;;;;;;;19.00;3.90;;;;;;;17.45;47.97;101385.18;218404;1288;140754;-88
2023/05/26 18:45:37;;;;;;;13.90;3.90;;;;;;;17.25;48.40;101393.52;219141;1287;138800;-85
2023/05/26 18:50:37;;;;;;;20.20;4.40;;;;;;;17.02;48.82;101402.68;218392;1288;140089;-85
2023/05/26 18:55:38;;;;;;;19.70;4.80;;;;;;;16.84;49.06;101414.97;219279;1287;95778;-86
2023/05/26 19:00:38;;;;;;;13.20;4.30;;;;;;;16.67;49.55;101426.54;218547;1287;140333;-84
2023/05/26 19:05:39;;;;;;;14.10;4.50;;;;;;;16.52;49.89;101429.84;218982;1288;138548;-84
2023/05/26 19:10:39;;;;;;;17.60;5.10;;;;;;;16.33;50.20;101434.98;218516;1288;141330;-85
2023/05/26 19:15:41;;;;;;;14.80;4.50;;;;;;;16.11;50.73;101448.54;218898;1287;138553;-84
2023/05/26 19:20:42;;;;;;;19.30;4.10;;;;;;;15.86;51.00;101453.08;218603;1288;140489;-85
2023/05/26 19:25:42;;;;;;;16.30;5.10;;;;;;;15.64;51.61;101459.85;218851;1288;138507;-84
2023/05/26 19:30:42;;;;;;;15.70;5.20;;;;;;;15.46;52.12;101471.84;218337;1290;141054;-83
2023/05/26 19:35:43;;;;;;;15.40;4.50;;;;;;;15.30;52.67;101484.61;218943;1288;139512;-84
2023/05/26 19:40:43;;;;;;;12.80;4.10;;;;;;;15.15;53.29;101487.06;218296;1288;140588;-84
2023/05/26 19:45:44;;;;;;;14.00;3.90;;;;;;;14.98;53.52;101490.63;219090;1288;138534;-84
2023/05/26 19:50:44;;;;;;;13.50;4.40;;;;;;;14.78;53.99;101486.86;218335;1288;141694;-84
2023/05/26 19:55:44;;;;;;;20.70;4.80;;;;;;;14.61;54.45;101492.91;218919;1288;139027;-84
2023/05/26 20:00:46;;;;;;;15.80;4.10;;;;;;;14.43;54.76;101495.47;218483;1288;140768;-84
2023/05/26 20:05:47;;;;;;;15.40;3.70;;;;;;;14.29;55.48;101501.79;218779;1290;138277;-84
2023/05/26 20:10:47;;;;;;;15.80;4.20;;;;;;;14.13;55.92;101506.98;218337;1288;139785;-84
2023/05/26 20:15:48;;;;;;;17.70;4.40;;;;;;;13.98;56.23;101516.11;218980;1288;138341;-84
2023/05/26 20:20:49;;;;;;;18.40;4.90;;;;;;;13.81;56.47;101512.77;218458;1288;141783;-84
2023/05/26 20:25:49;;;;;;;14.60;4.10;;;;;;;13.68;56.87;101514.38;218859;1288;140068;-83
2023/05/26 20:30:50;;;;;;;16.70;4.90;;;;;;;13.53;57.25;101515.16;218480;1288;141434;-84
2023/05/26 20:35:50;;;;;;;14.00;3.30;;;;;;;13.37;57.99;101527.05;218918;1288;138199;-84
2023/05/26 20:40:50;;;;;;;12.70;4.20;;;;;;;13.21;58.29;101530.73;218399;1288;140562;-85
2023/05/26 20:45:53;;;;;;;14.80;4.00;;;;;;;13.07;59.03;101533.09;218811;1288;138340;-84
2023/05/26 20:50:53;;;;;;;18.90;4.70;;;;;;;12.94;59.46;101538.49;218436;1289;141723;-83
2023/05/26 20:55:56;;;;;;;15.30;5.00;;;;;;;12.79;60.09;101538.59;219058;1288;137321;-85
2023/05/26 21:00:57;;;;;;;17.00;4.40;;;;;;;12.64;60.47;101547.83;218670;1288;141945;-85
2023/05/26 21:05:57;;;;;;;16.10;4.60;;;;;;;12.51;60.89;101550.23;218925;1289;139314;-84
2023/05/26 21:10:57;;;;;;;13.90;4.30;;;;;;;12.38;61.51;101553.90;218577;1288;140002;-85
2023/05/26 21:15:58;;;;;;;16.50;5.10;;;;;;;12.23;61.95;101560.77;218939;1288;138387;-84
2023/05/26 21:20:58;;;;;;;20.80;6.80;;;;;;;12.11;62.52;101563.64;218440;1288;140339;-85
2023/05/26 21:25:59;;;;;;;17.00;6.90;;;;;;;11.99;63.07;101570.53;218797;1288;138375;-85
2023/05/26 21:30:59;;;;;;;16.60;5.20;;;;;;;11.86;63.52;101575.98;218535;1288;141522;-86
2023/05/26 21:36:00;;;;;;;15.90;5.40;;;;;;;11.76;64.13;101575.34;218935;1288;138469;-86
2023/05/26 21:41:00;;;;;;;16.30;5.30;;;;;;;11.63;64.58;101578.00;218419;1288;140433;-85
2023/05/26 21:46:00;;;;;;;16.60;5.60;;;;;;;11.48;65.13;101575.38;218951;1288;138506;-85
2023/05/26 21:51:01;;;;;;;19.90;7.70;;;;;;;11.30;65.70;101581.67;218676;1288;140374;-86
2023/05/26 21:56:01;;;;;;;20.10;8.10;;;;;;;11.15;66.71;101583.40;218879;1288;139734;-83
2023/05/26 22:01:02;;;;;;;18.40;6.70;;;;;;;11.01;67.13;101580.27;218791;1288;139976;-85
2023/05/26 22:06:02;;;;;;;18.60;6.30;;;;;;;10.89;67.54;101578.83;219173;1288;138301;-86
2023/05/26 22:11:03;;;;;;;15.10;5.80;;;;;;;10.77;67.94;101579.89;218602;1290;141515;-86
2023/05/26 22:16:03;;;;;;;22.50;7.90;;;;;;;10.69;68.42;101584.60;218904;1289;139552;-85
2023/05/26 22:21:04;;;;;;;14.10;5.80;;;;;;;10.54;68.76;101584.56;218427;1289;140911;-85
2023/05/26 22:26:05;;;;;;;16.60;5.80;;;;;;;10.45;69.74;101590.36;218967;1289;139172;-86
2023/05/26 22:31:06;;;;;;;19.60;5.80;;;;;;;10.32;70.23;101588.20;218520;1289;141186;-85
2023/05/26 22:36:06;;;;;;;16.80;6.30;;;;;;;10.20;70.88;101592.89;219044;1288;138968;-86
2023/05/26 22:41:06;;;;;;;21.40;7.00;;;;;;;10.07;71.11;101601.21;218700;1288;140926;-87
2023/05/26 22:46:07;;;;;;;20.20;6.50;;;;;;;9.99;71.31;101603.65;218996;1288;139516;-87
2023/05/26 22:51:07;;;;;;;16.20;6.30;;;;;;;9.89;71.42;101602.79;218359;1288;141018;-87
2023/05/26 22:56:07;;;;;;;16.60;5.10;;;;;;;9.79;71.57;101605.38;219178;1288;138950;-87
2023/05/26 23:01:08;;;;;;;20.50;5.20;;;;;;;9.69;72.38;101605.80;218421;1289;143854;-86
2023/05/26 23:06:08;;;;;;;17.00;5.10;;;;;;;9.57;72.76;101608.92;218965;1287;138540;-86
2023/05/26 23:11:09;;;;;;;14.70;4.80;;;;;;;9.47;72.99;101609.46;218465;1288;140306;-86
2023/05/26 23:16:09;;;;;;;16.20;4.90;;;;;;;9.37;73.52;101608.24;218970;1288;138726;-85
2023/05/26 23:21:09;;;;;;;14.80;4.70;;;;;;;9.26;73.49;101608.27;218373;1287;140463;-86
2023/05/26 23:26:10;;;;;;;16.70;4.20;;;;;;;9.19;73.94;101613.35;219140;1287;138890;-86